sensor_id;sensor_type;location;lat;lon;timestamp;pressure;altitude;pressure_sealevel;temperature;humidity
33554;BME280;19885;42.208;24.952;2022-07-09T00:01:07;99570.13;;;22.00;77.56
33554;BME280;19885;42.208;24.952;2022-07-09T00:03:33;99581.81;;;22.53;74.90
33554;BME280;19885;42.208;24.952;2022-07-09T00:05:59;99591.91;;;22.65;74.52
33554;BME280;19885;42.208;24.952;2022-07-09T00:08:24;99595.53;;;22.64;75.07
33554;BME280;19885;42.208;24.952;2022-07-09T00:10:50;99576.78;;;22.47;74.95
33554;BME280;19885;42.208;24.952;2022-07-09T00:13:16;99593.25;;;22.93;73.72
33554;BME280;19885;42.208;24.952;2022-07-09T00:15:42;99584.16;;;22.80;74.42
33554;BME280;19885;42.208;24.952;2022-07-09T00:18:10;99583.84;;;22.48;75.29
33554;BME280;19885;42.208;24.952;2022-07-09T00:20:36;99582.59;;;21.98;75.76
33554;BME280;19885;42.208;24.952;2022-07-09T00:23:02;99578.75;;;21.23;79.01
33554;BME280;19885;42.208;24.952;2022-07-09T00:25:27;99571.53;;;21.05;80.64
33554;BME280;19885;42.208;24.952;2022-07-09T00:27:53;99585.59;;;20.84;82.05
33554;BME280;19885;42.208;24.952;2022-07-09T00:30:20;99574.53;;;21.17;79.56
33554;BME280;19885;42.208;24.952;2022-07-09T00:32:46;99569.91;;;21.44;78.17
33554;BME280;19885;42.208;24.952;2022-07-09T00:35:11;99569.66;;;21.28;78.86
33554;BME280;19885;42.208;24.952;2022-07-09T00:37:37;99564.63;;;21.22;79.72
33554;BME280;19885;42.208;24.952;2022-07-09T00:40:03;99561.69;;;20.63;82.06
33554;BME280;19885;42.208;24.952;2022-07-09T00:42:29;99577.88;;;20.56;81.66
33554;BME280;19885;42.208;24.952;2022-07-09T00:44:54;99569.59;;;20.42;82.80
33554;BME280;19885;42.208;24.952;2022-07-09T00:47:20;99573.63;;;20.52;82.42
33554;BME280;19885;42.208;24.952;2022-07-09T00:49:46;99567.50;;;20.95;80.68
33554;BME280;19885;42.208;24.952;2022-07-09T00:52:13;99538.09;;;20.79;80.63
33554;BME280;19885;42.208;24.952;2022-07-09T00:54:40;99549.47;;;21.04;79.02
33554;BME280;19885;42.208;24.952;2022-07-09T00:57:13;99559.97;;;21.07;79.93
33554;BME280;19885;42.208;24.952;2022-07-09T00:59:39;99551.38;;;21.22;78.72
33554;BME280;19885;42.208;24.952;2022-07-09T01:02:07;99559.34;;;20.99;79.81
33554;BME280;19885;42.208;24.952;2022-07-09T01:04:33;99557.13;;;21.12;79.21
33554;BME280;19885;42.208;24.952;2022-07-09T01:06:59;99493.31;;;21.37;76.70
33554;BME280;19885;42.208;24.952;2022-07-09T01:09:26;99542.53;;;21.84;76.12
33554;BME280;19885;42.208;24.952;2022-07-09T01:11:52;99538.09;;;21.84;75.48
33554;BME280;19885;42.208;24.952;2022-07-09T01:14:19;99516.38;;;21.75;75.11
33554;BME280;19885;42.208;24.952;2022-07-09T01:16:44;99540.78;;;21.63;75.60
33554;BME280;19885;42.208;24.952;2022-07-09T01:19:10;99544.44;;;21.60;76.18
33554;BME280;19885;42.208;24.952;2022-07-09T01:21:40;99556.69;;;21.63;76.17
33554;BME280;19885;42.208;24.952;2022-07-09T01:24:06;99552.41;;;21.80;75.50
33554;BME280;19885;42.208;24.952;2022-07-09T01:26:32;99548.94;;;22.19;73.13
33554;BME280;19885;42.208;24.952;2022-07-09T01:29:01;99547.22;;;22.36;72.61
33554;BME280;19885;42.208;24.952;2022-07-09T01:31:27;99548.44;;;22.29;73.38
33554;BME280;19885;42.208;24.952;2022-07-09T01:33:53;99548.03;;;21.99;74.66
33554;BME280;19885;42.208;24.952;2022-07-09T01:36:18;99548.91;;;22.00;74.73
33554;BME280;19885;42.208;24.952;2022-07-09T01:38:44;99562.53;;;22.11;74.32
33554;BME280;19885;42.208;24.952;2022-07-09T01:41:10;99563.31;;;22.13;74.15
33554;BME280;19885;42.208;24.952;2022-07-09T01:43:36;99548.06;;;22.18;73.00
33554;BME280;19885;42.208;24.952;2022-07-09T01:46:01;99563.03;;;22.39;72.34
33554;BME280;19885;42.208;24.952;2022-07-09T01:48:28;99561.13;;;22.61;71.34
33554;BME280;19885;42.208;24.952;2022-07-09T01:50:54;99568.59;;;22.33;73.27
33554;BME280;19885;42.208;24.952;2022-07-09T01:53:20;99563.03;;;22.39;72.13
33554;BME280;19885;42.208;24.952;2022-07-09T01:55:46;99562.22;;;22.37;72.61
33554;BME280;19885;42.208;24.952;2022-07-09T01:58:11;99567.69;;;22.34;72.53
33554;BME280;19885;42.208;24.952;2022-07-09T02:00:37;99567.47;;;21.80;74.37
33554;BME280;19885;42.208;24.952;2022-07-09T02:03:02;99512.41;;;21.45;75.07
33554;BME280;19885;42.208;24.952;2022-07-09T02:05:30;99553.13;;;21.64;75.34
33554;BME280;19885;42.208;24.952;2022-07-09T02:07:56;99548.56;;;21.05;78.32
33554;BME280;19885;42.208;24.952;2022-07-09T02:10:21;99551.06;;;21.08;78.31
33554;BME280;19885;42.208;24.952;2022-07-09T02:12:47;99546.34;;;21.37;76.57
33554;BME280;19885;42.208;24.952;2022-07-09T02:15:12;99549.69;;;21.42;76.31
33554;BME280;19885;42.208;24.952;2022-07-09T02:17:38;99544.38;;;21.62;75.74
33554;BME280;19885;42.208;24.952;2022-07-09T02:20:04;99549.22;;;21.72;75.20
33554;BME280;19885;42.208;24.952;2022-07-09T02:22:31;99551.53;;;21.60;75.54
33554;BME280;19885;42.208;24.952;2022-07-09T02:24:56;99562.78;;;21.65;75.26
33554;BME280;19885;42.208;24.952;2022-07-09T02:27:22;99503.84;;;21.58;73.69
33554;BME280;19885;42.208;24.952;2022-07-09T02:29:48;99561.59;;;21.72;73.77
33554;BME280;19885;42.208;24.952;2022-07-09T02:32:14;99540.75;;;21.44;75.28
33554;BME280;19885;42.208;24.952;2022-07-09T02:34:39;99558.66;;;21.38;75.71
33554;BME280;19885;42.208;24.952;2022-07-09T02:37:05;99532.53;;;21.28;75.98
33554;BME280;19885;42.208;24.952;2022-07-09T02:39:31;99514.09;;;21.05;76.19
33554;BME280;19885;42.208;24.952;2022-07-09T02:41:57;99517.47;;;20.87;77.05
33554;BME280;19885;42.208;24.952;2022-07-09T02:44:23;99542.78;;;20.51;79.44
33554;BME280;19885;42.208;24.952;2022-07-09T02:46:49;99531.09;;;20.10;81.20
33554;BME280;19885;42.208;24.952;2022-07-09T02:49:14;99543.91;;;20.21;81.06
33554;BME280;19885;42.208;24.952;2022-07-09T02:51:40;99546.09;;;20.10;81.76
33554;BME280;19885;42.208;24.952;2022-07-09T02:54:06;99547.03;;;20.32;80.87
33554;BME280;19885;42.208;24.952;2022-07-09T02:56:33;99552.88;;;20.63;79.40
33554;BME280;19885;42.208;24.952;2022-07-09T02:58:58;99544.72;;;20.69;79.89
33554;BME280;19885;42.208;24.952;2022-07-09T03:01:24;99547.34;;;20.69;80.05
33554;BME280;19885;42.208;24.952;2022-07-09T03:03:50;99546.41;;;20.25;81.32
33554;BME280;19885;42.208;24.952;2022-07-09T03:06:16;99557.34;;;19.91;83.92
33554;BME280;19885;42.208;24.952;2022-07-09T03:08:44;99558.53;;;19.83;83.76
33554;BME280;19885;42.208;24.952;2022-07-09T03:11:10;99566.47;;;19.83;84.50
33554;BME280;19885;42.208;24.952;2022-07-09T03:13:36;99562.03;;;19.83;83.26
33554;BME280;19885;42.208;24.952;2022-07-09T03:16:11;99556.78;;;20.07;83.33
33554;BME280;19885;42.208;24.952;2022-07-09T03:18:37;99565.31;;;20.15;82.75
33554;BME280;19885;42.208;24.952;2022-07-09T03:21:04;99563.16;;;20.26;82.67
33554;BME280;19885;42.208;24.952;2022-07-09T03:23:31;99489.44;;;19.92;82.05
33554;BME280;19885;42.208;24.952;2022-07-09T03:27:46;99555.59;;;19.90;85.11
33554;BME280;19885;42.208;24.952;2022-07-09T03:30:11;99552.16;;;19.88;85.58
33554;BME280;19885;42.208;24.952;2022-07-09T03:32:37;99483.28;;;19.44;85.81
33554;BME280;19885;42.208;24.952;2022-07-09T03:35:03;99486.66;;;19.47;85.91
33554;BME280;19885;42.208;24.952;2022-07-09T03:37:29;99548.28;;;19.99;85.17
33554;BME280;19885;42.208;24.952;2022-07-09T03:39:55;99545.56;;;20.00;84.80
33554;BME280;19885;42.208;24.952;2022-07-09T03:42:20;99552.69;;;20.23;83.73
33554;BME280;19885;42.208;24.952;2022-07-09T03:44:46;99547.16;;;20.29;84.54
33554;BME280;19885;42.208;24.952;2022-07-09T03:47:12;99557.28;;;20.41;83.28
33554;BME280;19885;42.208;24.952;2022-07-09T03:49:37;99555.41;;;20.88;80.83
33554;BME280;19885;42.208;24.952;2022-07-09T03:52:03;99543.91;;;20.67;81.25
33554;BME280;19885;42.208;24.952;2022-07-09T03:54:29;99554.25;;;20.28;81.91
33554;BME280;19885;42.208;24.952;2022-07-09T03:56:54;99566.63;;;20.28;82.83
33554;BME280;19885;42.208;24.952;2022-07-09T03:59:20;99559.81;;;20.67;82.06
33554;BME280;19885;42.208;24.952;2022-07-09T04:01:46;99511.00;;;20.51;80.84
33554;BME280;19885;42.208;24.952;2022-07-09T04:04:11;99535.50;;;20.56;82.20
33554;BME280;19885;42.208;24.952;2022-07-09T04:06:37;99552.97;;;20.38;83.00
33554;BME280;19885;42.208;24.952;2022-07-09T04:09:03;99552.22;;;20.35;84.06
33554;BME280;19885;42.208;24.952;2022-07-09T04:11:33;99556.53;;;20.37;84.00
33554;BME280;19885;42.208;24.952;2022-07-09T04:14:02;99484.25;;;19.89;82.42
33554;BME280;19885;42.208;24.952;2022-07-09T04:16:28;99571.66;;;20.57;82.91
33554;BME280;19885;42.208;24.952;2022-07-09T04:18:54;99544.91;;;20.41;81.53
33554;BME280;19885;42.208;24.952;2022-07-09T04:21:19;99560.66;;;20.89;81.54
33554;BME280;19885;42.208;24.952;2022-07-09T04:23:49;99549.94;;;20.92;80.81
33554;BME280;19885;42.208;24.952;2022-07-09T04:26:14;99558.06;;;20.66;82.19
33554;BME280;19885;42.208;24.952;2022-07-09T04:28:40;99547.41;;;20.68;83.15
33554;BME280;19885;42.208;24.952;2022-07-09T04:31:06;99550.13;;;20.66;82.52
33554;BME280;19885;42.208;24.952;2022-07-09T04:33:32;99547.47;;;20.66;83.57
33554;BME280;19885;42.208;24.952;2022-07-09T04:35:58;99546.13;;;20.78;82.27
33554;BME280;19885;42.208;24.952;2022-07-09T04:38:24;99542.84;;;20.71;82.55
33554;BME280;19885;42.208;24.952;2022-07-09T04:40:50;99557.03;;;20.92;81.91
33554;BME280;19885;42.208;24.952;2022-07-09T04:43:17;99538.66;;;21.30;79.51
33554;BME280;19885;42.208;24.952;2022-07-09T04:45:42;99551.28;;;21.66;78.85
33554;BME280;19885;42.208;24.952;2022-07-09T04:48:08;99547.06;;;21.40;79.64
33554;BME280;19885;42.208;24.952;2022-07-09T04:50:35;99531.13;;;21.62;78.40
33554;BME280;19885;42.208;24.952;2022-07-09T04:53:01;99522.84;;;21.07;78.94
33554;BME280;19885;42.208;24.952;2022-07-09T04:55:27;99550.88;;;21.55;78.25
33554;BME280;19885;42.208;24.952;2022-07-09T04:57:52;99548.34;;;21.52;77.14
33554;BME280;19885;42.208;24.952;2022-07-09T05:00:18;99490.97;;;21.09;78.67
33554;BME280;19885;42.208;24.952;2022-07-09T05:02:44;99507.53;;;20.92;78.78
33554;BME280;19885;42.208;24.952;2022-07-09T05:05:11;99561.22;;;21.61;78.17
33554;BME280;19885;42.208;24.952;2022-07-09T05:07:39;99540.38;;;21.31;77.25
33554;BME280;19885;42.208;24.952;2022-07-09T05:10:06;99549.50;;;21.66;77.01
33554;BME280;19885;42.208;24.952;2022-07-09T05:12:32;99556.00;;;21.38;77.64
33554;BME280;19885;42.208;24.952;2022-07-09T05:14:58;99557.59;;;21.21;78.15
33554;BME280;19885;42.208;24.952;2022-07-09T05:17:23;99563.16;;;21.15;78.62
33554;BME280;19885;42.208;24.952;2022-07-09T05:19:50;99555.50;;;21.29;78.83
33554;BME280;19885;42.208;24.952;2022-07-09T05:22:16;99565.19;;;21.51;79.33
33554;BME280;19885;42.208;24.952;2022-07-09T05:24:42;99558.72;;;21.98;76.98
33554;BME280;19885;42.208;24.952;2022-07-09T05:27:08;99562.03;;;21.83;76.62
33554;BME280;19885;42.208;24.952;2022-07-09T05:29:35;99562.28;;;21.77;75.34
33554;BME280;19885;42.208;24.952;2022-07-09T05:32:01;99564.66;;;21.63;76.85
33554;BME280;19885;42.208;24.952;2022-07-09T05:34:28;99565.66;;;21.60;76.96
33554;BME280;19885;42.208;24.952;2022-07-09T05:36:55;99565.69;;;21.80;76.80
33554;BME280;19885;42.208;24.952;2022-07-09T05:39:21;99570.66;;;21.88;76.62
33554;BME280;19885;42.208;24.952;2022-07-09T05:41:47;99566.34;;;21.85;76.84
33554;BME280;19885;42.208;24.952;2022-07-09T05:44:14;99557.66;;;21.62;77.31
33554;BME280;19885;42.208;24.952;2022-07-09T05:46:40;99561.16;;;21.82;76.67
33554;BME280;19885;42.208;24.952;2022-07-09T05:49:06;99551.34;;;22.05;76.15
33554;BME280;19885;42.208;24.952;2022-07-09T05:51:32;99505.44;;;21.82;76.19
33554;BME280;19885;42.208;24.952;2022-07-09T05:53:58;99553.09;;;22.24;74.48
33554;BME280;19885;42.208;24.952;2022-07-09T05:56:24;99555.69;;;22.44;73.98
33554;BME280;19885;42.208;24.952;2022-07-09T05:58:50;99541.00;;;22.75;72.83
33554;BME280;19885;42.208;24.952;2022-07-09T06:01:16;99548.84;;;22.95;72.43
33554;BME280;19885;42.208;24.952;2022-07-09T06:03:42;99556.69;;;22.98;72.22
33554;BME280;19885;42.208;24.952;2022-07-09T06:06:09;99538.31;;;23.10;70.91
33554;BME280;19885;42.208;24.952;2022-07-09T06:08:35;99506.31;;;22.78;71.26
33554;BME280;19885;42.208;24.952;2022-07-09T06:11:02;99560.88;;;22.85;71.19
33554;BME280;19885;42.208;24.952;2022-07-09T06:13:28;99552.94;;;22.66;72.01
33554;BME280;19885;42.208;24.952;2022-07-09T06:15:54;99543.38;;;22.81;72.11
33554;BME280;19885;42.208;24.952;2022-07-09T06:18:20;99552.44;;;22.38;72.63
33554;BME280;19885;42.208;24.952;2022-07-09T06:20:47;99542.19;;;22.30;73.89
33554;BME280;19885;42.208;24.952;2022-07-09T06:23:13;99553.28;;;22.20;75.05
33554;BME280;19885;42.208;24.952;2022-07-09T06:25:39;99544.25;;;22.05;75.58
33554;BME280;19885;42.208;24.952;2022-07-09T06:28:06;99476.72;;;21.92;74.44
33554;BME280;19885;42.208;24.952;2022-07-09T06:30:32;99539.91;;;22.41;73.81
33554;BME280;19885;42.208;24.952;2022-07-09T06:33:00;99534.59;;;22.41;73.57
33554;BME280;19885;42.208;24.952;2022-07-09T06:35:26;99519.66;;;22.57;73.66
33554;BME280;19885;42.208;24.952;2022-07-09T06:37:51;99531.53;;;23.05;71.52
33554;BME280;19885;42.208;24.952;2022-07-09T06:40:17;99523.09;;;23.14;71.18
33554;BME280;19885;42.208;24.952;2022-07-09T06:42:43;99521.53;;;23.10;71.04
33554;BME280;19885;42.208;24.952;2022-07-09T06:45:09;99529.19;;;23.16;71.99
33554;BME280;19885;42.208;24.952;2022-07-09T06:47:36;99530.00;;;23.69;69.90
33554;BME280;19885;42.208;24.952;2022-07-09T06:50:01;99532.66;;;23.86;68.35
33554;BME280;19885;42.208;24.952;2022-07-09T06:52:27;99525.75;;;24.17;67.27
33554;BME280;19885;42.208;24.952;2022-07-09T06:54:53;99524.75;;;24.35;67.18
33554;BME280;19885;42.208;24.952;2022-07-09T06:57:19;99512.69;;;24.28;66.53
33554;BME280;19885;42.208;24.952;2022-07-09T06:59:45;99531.25;;;23.79;68.75
33554;BME280;19885;42.208;24.952;2022-07-09T07:02:12;99535.75;;;23.62;69.03
33554;BME280;19885;42.208;24.952;2022-07-09T07:04:37;99522.63;;;23.23;71.12
33554;BME280;19885;42.208;24.952;2022-07-09T07:07:03;99518.97;;;23.25;70.79
33554;BME280;19885;42.208;24.952;2022-07-09T07:09:30;99524.97;;;24.15;67.68
33554;BME280;19885;42.208;24.952;2022-07-09T07:11:56;99523.44;;;23.59;69.08
33554;BME280;19885;42.208;24.952;2022-07-09T07:14:22;99513.41;;;23.81;67.85
33554;BME280;19885;42.208;24.952;2022-07-09T07:16:47;99510.19;;;24.25;67.05
33554;BME280;19885;42.208;24.952;2022-07-09T07:19:13;99519.56;;;24.32;66.23
33554;BME280;19885;42.208;24.952;2022-07-09T07:21:39;99503.94;;;24.57;65.23
33554;BME280;19885;42.208;24.952;2022-07-09T07:24:06;99516.91;;;24.32;65.78
33554;BME280;19885;42.208;24.952;2022-07-09T07:26:33;99517.91;;;24.77;65.16
33554;BME280;19885;42.208;24.952;2022-07-09T07:28:59;99509.63;;;24.51;65.92
33554;BME280;19885;42.208;24.952;2022-07-09T07:31:24;99513.81;;;24.39;65.26
33554;BME280;19885;42.208;24.952;2022-07-09T07:33:51;99518.91;;;24.44;64.98
33554;BME280;19885;42.208;24.952;2022-07-09T07:36:17;99512.72;;;24.43;65.23
33554;BME280;19885;42.208;24.952;2022-07-09T07:38:43;99515.72;;;24.53;64.49
33554;BME280;19885;42.208;24.952;2022-07-09T07:41:11;99515.13;;;24.48;66.75
33554;BME280;19885;42.208;24.952;2022-07-09T07:43:37;99519.56;;;24.32;65.59
33554;BME280;19885;42.208;24.952;2022-07-09T07:46:03;99506.84;;;24.21;65.36
33554;BME280;19885;42.208;24.952;2022-07-09T07:48:29;99515.25;;;24.14;67.13
33554;BME280;19885;42.208;24.952;2022-07-09T07:50:56;99489.63;;;24.11;66.95
33554;BME280;19885;42.208;24.952;2022-07-09T07:53:22;99514.25;;;24.47;65.60
33554;BME280;19885;42.208;24.952;2022-07-09T07:55:49;99518.91;;;24.44;64.51
33554;BME280;19885;42.208;24.952;2022-07-09T07:58:15;99522.66;;;24.40;64.15
33554;BME280;19885;42.208;24.952;2022-07-09T08:00:41;99527.16;;;24.55;64.06
33554;BME280;19885;42.208;24.952;2022-07-09T08:03:07;99519.78;;;24.60;64.24
33554;BME280;19885;42.208;24.952;2022-07-09T08:05:33;99524.63;;;24.85;62.28
33554;BME280;19885;42.208;24.952;2022-07-09T08:07:59;99521.84;;;24.55;63.34
33554;BME280;19885;42.208;24.952;2022-07-09T08:10:24;99521.91;;;25.00;62.24
33554;BME280;19885;42.208;24.952;2022-07-09T08:12:51;99515.22;;;24.62;62.56
33554;BME280;19885;42.208;24.952;2022-07-09T08:15:17;99493.03;;;24.61;61.58
33554;BME280;19885;42.208;24.952;2022-07-09T08:17:43;99513.56;;;24.59;61.96
33554;BME280;19885;42.208;24.952;2022-07-09T08:20:10;99517.94;;;24.60;61.32
33554;BME280;19885;42.208;24.952;2022-07-09T08:22:36;99518.03;;;24.59;62.94
33554;BME280;19885;42.208;24.952;2022-07-09T08:25:03;99527.41;;;24.35;62.31
33554;BME280;19885;42.208;24.952;2022-07-09T08:27:29;99519.06;;;24.41;62.22
33554;BME280;19885;42.208;24.952;2022-07-09T08:29:54;99518.19;;;24.40;61.29
33554;BME280;19885;42.208;24.952;2022-07-09T08:32:20;99518.03;;;24.43;61.64
33554;BME280;19885;42.208;24.952;2022-07-09T08:34:46;99516.25;;;24.44;61.06
33554;BME280;19885;42.208;24.952;2022-07-09T08:37:11;99519.03;;;24.25;61.89
33554;BME280;19885;42.208;24.952;2022-07-09T08:39:37;99518.56;;;24.50;61.40
33554;BME280;19885;42.208;24.952;2022-07-09T08:42:08;99520.09;;;24.54;62.63
33554;BME280;19885;42.208;24.952;2022-07-09T08:44:38;99518.72;;;24.47;62.78
33554;BME280;19885;42.208;24.952;2022-07-09T08:47:04;99528.53;;;24.62;61.43
33554;BME280;19885;42.208;24.952;2022-07-09T08:49:31;99528.97;;;24.70;62.42
33554;BME280;19885;42.208;24.952;2022-07-09T08:51:57;99525.34;;;25.02;61.04
33554;BME280;19885;42.208;24.952;2022-07-09T08:54:23;99515.16;;;25.24;60.39
33554;BME280;19885;42.208;24.952;2022-07-09T08:56:53;99529.22;;;25.72;58.49
33554;BME280;19885;42.208;24.952;2022-07-09T08:59:19;99479.38;;;25.42;58.65
33554;BME280;19885;42.208;24.952;2022-07-09T09:01:44;99507.06;;;25.56;58.15
33554;BME280;19885;42.208;24.952;2022-07-09T09:04:10;99522.00;;;25.14;60.08
33554;BME280;19885;42.208;24.952;2022-07-09T09:06:37;99465.75;;;25.17;59.57
33554;BME280;19885;42.208;24.952;2022-07-09T09:09:03;99512.47;;;25.24;58.02
33554;BME280;19885;42.208;24.952;2022-07-09T09:11:29;99492.59;;;25.00;58.35
33554;BME280;19885;42.208;24.952;2022-07-09T09:13:57;99518.84;;;25.22;59.86
33554;BME280;19885;42.208;24.952;2022-07-09T09:16:23;99510.97;;;25.50;58.16
33554;BME280;19885;42.208;24.952;2022-07-09T09:18:50;99522.44;;;25.36;59.07
33554;BME280;19885;42.208;24.952;2022-07-09T09:21:19;99522.13;;;26.00;56.56
33554;BME280;19885;42.208;24.952;2022-07-09T09:23:49;99508.19;;;26.38;55.15
33554;BME280;19885;42.208;24.952;2022-07-09T09:26:22;99464.97;;;26.17;54.44
33554;BME280;19885;42.208;24.952;2022-07-09T09:28:59;99517.69;;;26.70;54.25
33554;BME280;19885;42.208;24.952;2022-07-09T09:31:26;99521.91;;;26.03;55.59
33554;BME280;19885;42.208;24.952;2022-07-09T09:33:58;99525.13;;;26.10;54.71
33554;BME280;19885;42.208;24.952;2022-07-09T09:36:42;99528.06;;;26.19;55.51
33554;BME280;19885;42.208;24.952;2022-07-09T09:41:56;99525.69;;;26.70;54.24
33554;BME280;19885;42.208;24.952;2022-07-09T09:44:28;99526.28;;;26.89;52.85
33554;BME280;19885;42.208;24.952;2022-07-09T09:46:56;99525.91;;;26.81;54.16
33554;BME280;19885;42.208;24.952;2022-07-09T09:49:23;99530.09;;;27.12;53.81
33554;BME280;19885;42.208;24.952;2022-07-09T09:52:07;99523.28;;;26.94;54.21
33554;BME280;19885;42.208;24.952;2022-07-09T09:54:37;99518.91;;;26.78;54.81
33554;BME280;19885;42.208;24.952;2022-07-09T09:57:08;99513.50;;;27.07;52.25
33554;BME280;19885;42.208;24.952;2022-07-09T09:59:39;99506.22;;;27.09;53.89
33554;BME280;19885;42.208;24.952;2022-07-09T10:02:05;99511.00;;;27.30;52.35
33554;BME280;19885;42.208;24.952;2022-07-09T10:04:41;99520.41;;;27.36;51.35
33554;BME280;19885;42.208;24.952;2022-07-09T10:07:09;99518.59;;;27.63;51.66
33554;BME280;19885;42.208;24.952;2022-07-09T10:09:35;99510.50;;;27.11;53.24
33554;BME280;19885;42.208;24.952;2022-07-09T10:12:01;99514.38;;;27.20;53.11
33554;BME280;19885;42.208;24.952;2022-07-09T10:16:52;99513.06;;;27.13;54.36
33554;BME280;19885;42.208;24.952;2022-07-09T10:19:28;99501.84;;;27.47;52.97
33554;BME280;19885;42.208;24.952;2022-07-09T10:21:57;99506.47;;;27.18;52.96
33554;BME280;19885;42.208;24.952;2022-07-09T10:24:33;99503.44;;;27.10;54.01
33554;BME280;19885;42.208;24.952;2022-07-09T10:27:07;99486.44;;;26.30;54.40
33554;BME280;19885;42.208;24.952;2022-07-09T10:29:35;99500.88;;;27.09;53.76
33554;BME280;19885;42.208;24.952;2022-07-09T10:32:01;99497.53;;;26.78;54.21
33554;BME280;19885;42.208;24.952;2022-07-09T10:35:02;99501.75;;;26.82;52.58
33554;BME280;19885;42.208;24.952;2022-07-09T10:37:35;99499.38;;;26.50;54.75
33554;BME280;19885;42.208;24.952;2022-07-09T10:40:19;99496.25;;;26.43;54.11
33554;BME280;19885;42.208;24.952;2022-07-09T10:43:00;99500.28;;;26.22;54.55
33554;BME280;19885;42.208;24.952;2022-07-09T10:45:27;99502.88;;;26.78;52.80
33554;BME280;19885;42.208;24.952;2022-07-09T10:47:58;99495.50;;;27.09;52.40
33554;BME280;19885;42.208;24.952;2022-07-09T10:50:25;99502.28;;;27.14;53.99
33554;BME280;19885;42.208;24.952;2022-07-09T10:52:51;99486.72;;;27.07;51.32
33554;BME280;19885;42.208;24.952;2022-07-09T10:55:22;99474.28;;;26.93;52.94
33554;BME280;19885;42.208;24.952;2022-07-09T10:57:48;99492.97;;;26.66;52.97
33554;BME280;19885;42.208;24.952;2022-07-09T11:00:16;99481.44;;;26.93;51.96
33554;BME280;19885;42.208;24.952;2022-07-09T11:03:04;99494.66;;;26.67;53.42
33554;BME280;19885;42.208;24.952;2022-07-09T11:05:31;99499.81;;;26.30;52.88
33554;BME280;19885;42.208;24.952;2022-07-09T11:08:06;99498.34;;;26.38;54.51
33554;BME280;19885;42.208;24.952;2022-07-09T11:10:36;99501.19;;;26.49;53.65
33554;BME280;19885;42.208;24.952;2022-07-09T11:15:19;99494.94;;;26.36;52.03
33554;BME280;19885;42.208;24.952;2022-07-09T11:18:12;99481.00;;;26.31;54.47
33554;BME280;19885;42.208;24.952;2022-07-09T11:20:41;99484.53;;;26.32;54.48
33554;BME280;19885;42.208;24.952;2022-07-09T11:23:10;99396.28;;;26.19;51.85
33554;BME280;19885;42.208;24.952;2022-07-09T11:25:36;99496.63;;;27.19;52.49
33554;BME280;19885;42.208;24.952;2022-07-09T11:28:02;99486.25;;;27.27;51.66
33554;BME280;19885;42.208;24.952;2022-07-09T11:30:29;99486.81;;;26.78;53.35
33554;BME280;19885;42.208;24.952;2022-07-09T11:32:55;99481.94;;;27.12;51.05
33554;BME280;19885;42.208;24.952;2022-07-09T11:37:54;99489.84;;;27.40;49.24
33554;BME280;19885;42.208;24.952;2022-07-09T11:40:21;99486.44;;;27.63;47.63
33554;BME280;19885;42.208;24.952;2022-07-09T11:42:47;99487.28;;;27.51;49.31
33554;BME280;19885;42.208;24.952;2022-07-09T11:45:12;99472.78;;;27.02;50.79
33554;BME280;19885;42.208;24.952;2022-07-09T11:47:41;99474.97;;;27.22;50.40
33554;BME280;19885;42.208;24.952;2022-07-09T11:50:12;99478.91;;;26.77;52.42
33554;BME280;19885;42.208;24.952;2022-07-09T11:52:48;99473.34;;;27.07;52.33
33554;BME280;19885;42.208;24.952;2022-07-09T11:55:17;99476.09;;;27.32;48.94
33554;BME280;19885;42.208;24.952;2022-07-09T11:58:05;99471.53;;;27.07;47.88
33554;BME280;19885;42.208;24.952;2022-07-09T12:00:33;99467.00;;;27.34;48.64
33554;BME280;19885;42.208;24.952;2022-07-09T12:03:00;99466.75;;;27.64;48.87
33554;BME280;19885;42.208;24.952;2022-07-09T12:05:32;99456.66;;;27.55;48.43
33554;BME280;19885;42.208;24.952;2022-07-09T12:08:02;99462.34;;;27.88;48.50
33554;BME280;19885;42.208;24.952;2022-07-09T12:10:38;99457.34;;;27.32;49.86
33554;BME280;19885;42.208;24.952;2022-07-09T12:13:05;99456.81;;;27.27;49.08
33554;BME280;19885;42.208;24.952;2022-07-09T12:15:32;99464.28;;;27.22;50.35
33554;BME280;19885;42.208;24.952;2022-07-09T12:17:59;99459.69;;;26.84;51.05
33554;BME280;19885;42.208;24.952;2022-07-09T12:20:27;99461.44;;;26.98;50.73
33554;BME280;19885;42.208;24.952;2022-07-09T12:22:53;99457.38;;;26.52;51.69
33554;BME280;19885;42.208;24.952;2022-07-09T12:25:20;99460.16;;;26.50;51.31
33554;BME280;19885;42.208;24.952;2022-07-09T12:27:47;99456.19;;;26.29;50.54
33554;BME280;19885;42.208;24.952;2022-07-09T12:30:13;99454.25;;;26.45;51.43
33554;BME280;19885;42.208;24.952;2022-07-09T12:32:41;99453.31;;;27.00;50.08
33554;BME280;19885;42.208;24.952;2022-07-09T12:35:08;99354.63;;;26.29;50.20
33554;BME280;19885;42.208;24.952;2022-07-09T12:37:34;99457.03;;;26.70;49.50
33554;BME280;19885;42.208;24.952;2022-07-09T12:40:01;99450.63;;;27.00;49.30
33554;BME280;19885;42.208;24.952;2022-07-09T12:42:26;99461.25;;;26.74;50.77
33554;BME280;19885;42.208;24.952;2022-07-09T12:44:52;99466.19;;;27.20;50.24
33554;BME280;19885;42.208;24.952;2022-07-09T12:47:18;99462.31;;;26.99;49.86
33554;BME280;19885;42.208;24.952;2022-07-09T12:49:43;99465.69;;;26.47;53.79
33554;BME280;19885;42.208;24.952;2022-07-09T12:52:09;99448.38;;;25.84;55.21
33554;BME280;19885;42.208;24.952;2022-07-09T12:54:35;99441.47;;;25.52;55.68
33554;BME280;19885;42.208;24.952;2022-07-09T12:57:00;99450.38;;;25.66;56.29
33554;BME280;19885;42.208;24.952;2022-07-09T12:59:26;99442.72;;;25.46;55.23
33554;BME280;19885;42.208;24.952;2022-07-09T13:01:51;99432.53;;;25.53;55.11